createdAt,value
2019-04-16T00:00:42.446Z,7.36
2019-04-16T00:01:38.886Z,7.46
2019-04-16T00:02:37.831Z,7.33
2019-04-16T00:03:37.814Z,7.26
2019-04-16T00:04:37.809Z,7.28
2019-04-16T00:05:37.795Z,7.28
2019-04-16T00:06:37.798Z,7.29
2019-04-16T00:07:37.819Z,7.26
2019-04-16T00:08:37.760Z,7.28
2019-04-16T00:09:37.750Z,7.26
2019-04-16T00:10:37.741Z,7.28
2019-04-16T00:11:37.728Z,7.21
2019-04-16T00:12:37.723Z,7.21
2019-04-16T00:13:37.753Z,7.26
2019-04-16T00:14:37.692Z,7.24
2019-04-16T00:15:41.013Z,7.24
2019-04-16T00:16:37.672Z,7.19
2019-04-16T00:17:37.669Z,7.19
2019-04-16T00:18:37.647Z,7.21
2019-04-16T00:19:37.684Z,7.15
2019-04-16T00:20:38.105Z,7.10
2019-04-16T00:21:38.514Z,7.11
2019-04-16T00:22:37.607Z,7.11
2019-04-16T00:23:37.593Z,7.21
2019-04-16T00:24:37.630Z,7.19
2019-04-16T00:25:37.611Z,7.18
2019-04-16T00:26:37.569Z,7.15
2019-04-16T00:27:37.555Z,7.13
2019-04-16T00:28:37.543Z,7.07
2019-04-16T00:29:39.656Z,7.06
2019-04-16T00:30:37.516Z,7.10
2019-04-16T00:31:37.790Z,7.13
2019-04-16T00:32:38.821Z,7.10
2019-04-16T00:33:39.356Z,7.08
2019-04-16T00:34:38.474Z,7.06
2019-04-16T00:35:37.464Z,7.01
2019-04-16T00:36:37.456Z,6.96
2019-04-16T00:37:37.494Z,7.03
2019-04-16T00:38:41.069Z,7.03
2019-04-16T00:39:37.418Z,6.93
2019-04-16T00:40:37.417Z,6.99
2019-04-16T00:41:37.401Z,6.93
2019-04-16T00:42:37.388Z,7.00
2019-04-16T00:43:37.415Z,6.96
2019-04-16T00:44:37.365Z,6.89
2019-04-16T00:45:37.409Z,6.89
2019-04-16T00:46:37.360Z,6.93
2019-04-16T00:47:37.336Z,6.86
2019-04-16T00:48:37.327Z,6.89
2019-04-16T00:49:38.079Z,6.83
2019-04-16T00:50:37.328Z,6.85
2019-04-16T00:51:37.294Z,6.75
2019-04-16T00:52:37.697Z,6.82
2019-04-16T00:53:39.161Z,6.75
2019-04-16T00:54:39.241Z,6.75
2019-04-16T00:55:38.297Z,6.74
2019-04-16T00:56:37.235Z,6.71
2019-04-16T00:57:37.220Z,6.67
2019-04-16T00:58:37.217Z,6.64
2019-04-16T00:59:37.204Z,6.68
2019-04-16T01:00:37.186Z,6.65
2019-04-16T01:01:37.218Z,6.65
2019-04-16T01:02:37.171Z,6.63
2019-04-16T01:03:37.157Z,6.65
2019-04-16T01:04:37.145Z,6.61
2019-04-16T01:05:37.139Z,6.57
2019-04-16T01:06:37.916Z,6.57
2019-04-16T01:07:37.161Z,6.61
2019-04-16T01:08:37.101Z,6.56
2019-04-16T01:09:37.087Z,6.63
2019-04-16T01:10:37.078Z,6.60
2019-04-16T01:11:37.074Z,6.60
2019-04-16T01:12:37.059Z,6.46
2019-04-16T01:13:37.078Z,6.47
2019-04-16T01:14:37.033Z,6.47
2019-04-16T01:15:37.024Z,6.38
2019-04-16T01:16:37.013Z,6.49
2019-04-16T01:17:37.004Z,6.45
2019-04-16T01:18:38.794Z,6.35
2019-04-16T01:19:38.255Z,6.31
2019-04-16T01:20:36.981Z,6.34
2019-04-16T01:21:36.959Z,6.35
2019-04-16T01:22:36.950Z,6.25
2019-04-16T01:23:36.937Z,6.19
2019-04-16T01:24:36.937Z,6.31
2019-04-16T01:25:36.961Z,6.30
2019-04-16T01:26:36.910Z,6.18
2019-04-16T01:27:36.895Z,6.16
2019-04-16T01:28:36.886Z,6.18
2019-04-16T01:29:36.868Z,6.11
2019-04-16T01:30:37.219Z,6.12
2019-04-16T01:31:38.672Z,6.09
2019-04-16T01:32:36.845Z,6.05
2019-04-16T01:33:36.849Z,6.02
2019-04-16T01:34:36.816Z,6.05
2019-04-16T01:35:36.810Z,6.06
2019-04-16T01:36:36.801Z,5.95
2019-04-16T01:37:36.952Z,5.94
2019-04-16T01:38:36.775Z,5.93
2019-04-16T01:39:36.765Z,5.95
2019-04-16T01:40:36.757Z,5.97
2019-04-16T01:41:36.742Z,5.91
2019-04-16T01:42:36.732Z,5.82
2019-04-16T01:43:36.757Z,5.80
2019-04-16T01:44:36.707Z,5.79
2019-04-16T01:45:36.698Z,5.84
2019-04-16T01:46:36.690Z,5.80
2019-04-16T01:47:37.318Z,5.84
2019-04-16T01:48:39.116Z,5.79
2019-04-16T01:49:39.310Z,5.84
2019-04-16T01:50:36.640Z,5.76
2019-04-16T01:51:37.822Z,5.80
2019-04-16T01:52:36.630Z,5.67
2019-04-16T01:53:36.620Z,5.67
2019-04-16T01:54:36.609Z,5.65
2019-04-16T01:55:36.802Z,5.67
2019-04-16T01:56:36.584Z,5.65
2019-04-16T01:57:36.574Z,5.58
2019-04-16T01:58:36.559Z,5.57
2019-04-16T01:59:36.552Z,5.54
2019-04-16T02:00:39.161Z,5.54
2019-04-16T02:01:36.558Z,5.54
2019-04-16T02:02:36.517Z,5.55
2019-04-16T02:03:36.498Z,5.52
2019-04-16T02:04:36.507Z,5.47
2019-04-16T02:05:36.489Z,5.44
2019-04-16T02:06:36.538Z,5.47
2019-04-16T02:07:36.508Z,5.41
2019-04-16T02:08:36.443Z,5.50
2019-04-16T02:09:36.438Z,5.48
2019-04-16T02:10:38.308Z,5.33
2019-04-16T02:11:38.834Z,5.37
2019-04-16T02:12:36.398Z,5.34
2019-04-16T02:13:36.669Z,5.33
2019-04-16T02:14:36.377Z,5.34
2019-04-16T02:15:36.386Z,5.37
2019-04-16T02:16:36.358Z,5.32
2019-04-16T02:17:36.351Z,5.33
2019-04-16T02:18:36.344Z,5.33
2019-04-16T02:19:36.348Z,5.27
2019-04-16T02:20:39.514Z,5.29
2019-04-16T02:21:38.990Z,5.14
2019-04-16T02:22:36.300Z,5.19
2019-04-16T02:23:36.274Z,5.15
2019-04-16T02:24:36.263Z,5.15
2019-04-16T02:25:36.320Z,5.16
2019-04-16T02:26:36.244Z,5.16
2019-04-16T02:27:36.236Z,5.07
2019-04-16T02:28:36.230Z,5.04
2019-04-16T02:29:36.216Z,5.09
2019-04-16T02:30:39.424Z,5.06
2019-04-16T02:31:36.234Z,5.07
2019-04-16T02:32:36.184Z,4.98
2019-04-16T02:33:36.175Z,5.04
2019-04-16T02:34:36.168Z,4.96
2019-04-16T02:35:36.143Z,4.97
2019-04-16T02:36:36.137Z,4.96
2019-04-16T02:37:37.535Z,5.01
2019-04-16T02:38:36.119Z,4.97
2019-04-16T02:39:47.585Z,4.96
2019-04-16T02:40:37.119Z,4.93
2019-04-16T02:41:36.093Z,4.96
2019-04-16T02:42:36.072Z,4.91
2019-04-16T02:43:40.850Z,4.96
2019-04-16T02:44:37.057Z,4.93
2019-04-16T02:45:36.037Z,4.96
2019-04-16T02:46:36.034Z,4.86
2019-04-16T02:47:39.892Z,4.82
2019-04-16T02:48:37.054Z,4.88
2019-04-16T02:49:35.996Z,4.85
2019-04-16T02:50:35.981Z,4.79
2019-04-16T02:51:39.585Z,4.86
2019-04-16T02:52:36.976Z,4.86
2019-04-16T02:53:35.944Z,4.89
2019-04-16T02:54:35.991Z,4.82
2019-04-16T02:55:42.661Z,4.86
2019-04-16T02:56:36.911Z,4.85
2019-04-16T02:57:35.906Z,4.89
2019-04-16T02:58:35.895Z,4.79
2019-04-16T02:59:35.891Z,4.88
2019-04-16T03:00:35.925Z,4.88
2019-04-16T03:01:35.859Z,4.86
2019-04-16T03:02:35.860Z,4.91
2019-04-16T03:03:35.840Z,4.88
2019-04-16T03:04:35.822Z,4.91
2019-04-16T03:05:35.825Z,4.97
2019-04-16T03:06:35.857Z,4.88
2019-04-16T03:07:35.816Z,4.85
2019-04-16T03:08:36.142Z,4.83
2019-04-16T03:09:39.820Z,4.78
2019-04-16T03:10:36.763Z,4.88
2019-04-16T03:11:35.746Z,4.86
2019-04-16T03:12:35.791Z,4.75
2019-04-16T03:13:35.728Z,4.77
2019-04-16T03:14:35.740Z,4.77
2019-04-16T03:15:35.703Z,4.79
2019-04-16T03:16:37.927Z,4.75
2019-04-16T03:17:35.714Z,4.83
2019-04-16T03:18:35.719Z,4.74
2019-04-16T03:19:38.755Z,4.75
2019-04-16T03:20:35.671Z,4.75
2019-04-16T03:21:35.633Z,4.71
2019-04-16T03:22:35.625Z,4.74
2019-04-16T03:23:37.518Z,4.64
2019-04-16T03:24:37.513Z,4.72
2019-04-16T03:25:35.615Z,4.61
2019-04-16T03:26:35.591Z,4.61
2019-04-16T03:27:35.574Z,4.60
2019-04-16T03:28:35.566Z,4.63
2019-04-16T03:29:35.549Z,4.61
2019-04-16T03:30:42.095Z,4.61
2019-04-16T03:31:36.528Z,4.59
2019-04-16T03:32:36.331Z,4.60
2019-04-16T03:33:35.527Z,4.51
2019-04-16T03:34:35.495Z,4.54
2019-04-16T03:35:35.486Z,4.46
2019-04-16T03:36:35.522Z,4.51
2019-04-16T03:37:35.469Z,4.53
2019-04-16T03:38:36.977Z,4.39
2019-04-16T03:39:35.435Z,4.43
2019-04-16T03:40:35.449Z,4.42
2019-04-16T03:41:35.418Z,4.41
2019-04-16T03:42:35.448Z,4.49
2019-04-16T03:43:35.393Z,4.35
2019-04-16T03:44:37.283Z,4.31
2019-04-16T03:45:37.591Z,4.31
2019-04-16T03:46:35.365Z,4.34
2019-04-16T03:47:35.364Z,4.31
2019-04-16T03:48:35.405Z,4.43
2019-04-16T03:49:35.337Z,4.28
2019-04-16T03:50:35.320Z,4.28
2019-04-16T03:51:36.454Z,4.27
2019-04-16T03:52:37.484Z,4.27
2019-04-16T03:53:36.492Z,4.26
2019-04-16T03:54:35.270Z,4.31
2019-04-16T03:55:35.276Z,4.23
2019-04-16T03:56:35.250Z,4.24
2019-04-16T03:57:35.240Z,4.23
2019-04-16T03:58:37.974Z,4.26
2019-04-16T03:59:35.269Z,4.17
2019-04-16T04:00:35.221Z,4.26
2019-04-16T04:01:35.192Z,4.17
2019-04-16T04:02:35.217Z,4.27
2019-04-16T04:03:35.170Z,4.24
2019-04-16T04:04:35.180Z,4.28
2019-04-16T04:05:35.813Z,4.23
2019-04-16T04:06:36.563Z,4.31
2019-04-16T04:07:35.137Z,4.20
2019-04-16T04:08:35.119Z,4.21
2019-04-16T04:09:35.104Z,4.18
2019-04-16T04:10:37.068Z,4.23
2019-04-16T04:11:35.134Z,4.26
2019-04-16T04:12:35.081Z,4.23
2019-04-16T04:13:35.061Z,4.23
2019-04-16T04:14:35.050Z,4.20
2019-04-16T04:15:35.037Z,4.23
2019-04-16T04:16:35.027Z,4.20
2019-04-16T04:17:35.659Z,4.16
2019-04-16T04:18:35.024Z,4.08
2019-04-16T04:19:34.995Z,4.06
2019-04-16T04:20:34.982Z,4.10
2019-04-16T04:21:34.972Z,4.09
2019-04-16T04:22:34.962Z,4.06
2019-04-16T04:23:34.987Z,4.09
2019-04-16T04:24:34.947Z,4.05
2019-04-16T04:25:36.269Z,4.09
2019-04-16T04:26:34.925Z,4.00
2019-04-16T04:27:34.907Z,3.96
2019-04-16T04:28:34.898Z,4.05
2019-04-16T04:29:34.920Z,3.96
2019-04-16T04:30:34.876Z,3.91
2019-04-16T04:31:34.874Z,3.90
2019-04-16T04:32:35.370Z,3.99
2019-04-16T04:33:40.865Z,3.92
2019-04-16T04:34:35.862Z,3.92
2019-04-16T04:35:34.819Z,3.87
2019-04-16T04:36:34.808Z,3.87
2019-04-16T04:37:34.821Z,3.84
2019-04-16T04:38:37.539Z,3.91
2019-04-16T04:39:34.774Z,3.87
2019-04-16T04:40:44.325Z,3.84
2019-04-16T04:41:35.752Z,3.81
2019-04-16T04:42:34.753Z,3.87
2019-04-16T04:43:34.730Z,3.85
2019-04-16T04:44:36.952Z,3.85
2019-04-16T04:45:34.710Z,3.84
2019-04-16T04:46:34.759Z,3.82
2019-04-16T04:47:34.686Z,3.81
2019-04-16T04:48:34.679Z,3.85
2019-04-16T04:49:34.667Z,3.90
2019-04-16T04:50:35.398Z,3.85
2019-04-16T04:51:36.448Z,3.82
2019-04-16T04:52:35.660Z,3.85
2019-04-16T04:53:34.641Z,3.88
2019-04-16T04:54:34.609Z,3.82
2019-04-16T04:55:34.615Z,3.84
2019-04-16T04:56:34.592Z,3.85
2019-04-16T04:57:34.576Z,3.87
2019-04-16T04:58:34.888Z,3.85
2019-04-16T04:59:36.785Z,3.85
2019-04-16T05:00:34.545Z,3.88
2019-04-16T05:01:34.534Z,3.92
2019-04-16T05:02:34.536Z,3.94
2019-04-16T05:03:34.520Z,3.90
2019-04-16T05:04:34.543Z,3.91
2019-04-16T05:05:34.487Z,3.92
2019-04-16T05:06:34.477Z,3.96
2019-04-16T05:07:34.467Z,3.91
2019-04-16T05:08:34.500Z,3.99
2019-04-16T05:09:36.403Z,4.09
2019-04-16T05:10:36.903Z,4.06
2019-04-16T05:11:35.424Z,4.02
2019-04-16T05:12:34.413Z,4.06
2019-04-16T05:13:34.406Z,4.05
2019-04-16T05:14:34.406Z,4.05
2019-04-16T05:15:34.377Z,4.18
2019-04-16T05:16:35.143Z,4.21
2019-04-16T05:17:35.477Z,4.23
2019-04-16T05:18:34.343Z,4.28
2019-04-16T05:19:34.341Z,4.31
2019-04-16T05:20:34.340Z,4.36
2019-04-16T05:21:34.310Z,4.36
2019-04-16T05:22:34.345Z,4.30
2019-04-16T05:23:34.289Z,4.36
2019-04-16T05:24:37.422Z,4.31
2019-04-16T05:25:34.519Z,4.35
2019-04-16T05:26:36.587Z,4.35
2019-04-16T05:27:34.258Z,4.42
2019-04-16T05:28:34.274Z,4.45
2019-04-16T05:29:34.222Z,4.46
2019-04-16T05:30:34.211Z,4.54
2019-04-16T05:31:34.201Z,4.57
2019-04-16T05:32:34.335Z,4.59
2019-04-16T05:33:34.534Z,4.64
2019-04-16T05:34:34.568Z,4.72
2019-04-16T05:35:34.156Z,4.77
2019-04-16T05:36:34.148Z,4.89
2019-04-16T05:37:34.159Z,4.82
2019-04-16T05:38:34.145Z,4.88
2019-04-16T05:39:34.114Z,4.88
2019-04-16T05:40:35.255Z,4.86
2019-04-16T05:41:34.094Z,4.96
2019-04-16T05:42:34.079Z,4.93
2019-04-16T05:43:34.068Z,4.93
2019-04-16T05:44:34.239Z,5.01
2019-04-16T05:45:34.429Z,5.09
2019-04-16T05:46:34.072Z,5.11
2019-04-16T05:47:34.024Z,5.14
2019-04-16T05:48:34.018Z,5.27
2019-04-16T05:49:34.000Z,5.25
2019-04-16T05:50:34.003Z,5.36
2019-04-16T05:51:33.988Z,5.37
2019-04-16T05:52:35.819Z,5.41
2019-04-16T05:53:33.958Z,5.48
2019-04-16T05:54:33.948Z,5.55
2019-04-16T05:55:33.937Z,5.58
2019-04-16T05:56:33.945Z,5.70
2019-04-16T05:57:33.917Z,5.80
2019-04-16T05:58:33.933Z,5.87
2019-04-16T05:59:34.554Z,5.95
2019-04-16T06:00:33.882Z,6.06
2019-04-16T06:01:33.871Z,6.13
2019-04-16T06:02:33.866Z,6.16
2019-04-16T06:03:33.848Z,6.34
2019-04-16T06:04:33.898Z,6.40
2019-04-16T06:05:33.830Z,6.34
2019-04-16T06:06:33.816Z,6.47
2019-04-16T06:07:37.771Z,6.50
2019-04-16T06:08:33.866Z,6.65
2019-04-16T06:09:33.803Z,6.70
2019-04-16T06:10:33.824Z,6.82
2019-04-16T06:11:36.552Z,6.81
2019-04-16T06:12:33.751Z,6.91
2019-04-16T06:13:33.740Z,7.00
2019-04-16T06:14:33.728Z,7.16
2019-04-16T06:15:35.846Z,7.19
2019-04-16T06:16:33.749Z,7.37
2019-04-16T06:17:33.696Z,7.57
2019-04-16T06:18:37.080Z,7.62
2019-04-16T06:19:33.673Z,7.87
2019-04-16T06:20:33.733Z,7.98
2019-04-16T06:21:33.651Z,7.98
2019-04-16T06:22:33.688Z,8.04
2019-04-16T06:23:33.675Z,8.19
2019-04-16T06:24:35.856Z,8.12
2019-04-16T06:25:33.624Z,8.26
2019-04-16T06:26:33.601Z,8.31
2019-04-16T06:27:33.627Z,8.50
2019-04-16T06:28:33.626Z,8.60
2019-04-16T06:29:33.562Z,8.65
2019-04-16T06:30:34.110Z,8.68
2019-04-16T06:31:36.301Z,8.78
2019-04-16T06:32:34.548Z,8.90
2019-04-16T06:33:33.521Z,8.96
2019-04-16T06:34:33.539Z,8.92
2019-04-16T06:35:43.209Z,9.12
2019-04-16T06:36:34.498Z,9.18
2019-04-16T06:37:33.473Z,9.15
2019-04-16T06:38:33.467Z,9.30
2019-04-16T06:39:33.468Z,9.45
2019-04-16T06:40:33.743Z,9.45
2019-04-16T06:41:41.668Z,9.51
2019-04-16T06:42:34.416Z,9.65
2019-04-16T06:43:33.415Z,9.65
2019-04-16T06:44:35.002Z,9.73
2019-04-16T06:45:36.935Z,9.83
2019-04-16T06:46:33.433Z,9.84
2019-04-16T06:47:33.367Z,9.88
2019-04-16T06:48:33.350Z,9.85
2019-04-16T06:49:34.614Z,9.96
2019-04-16T06:50:39.587Z,9.96
2019-04-16T06:51:34.366Z,9.91
2019-04-16T06:52:33.305Z,9.88
2019-04-16T06:53:33.334Z,10.06
2019-04-16T06:54:33.291Z,10.01
2019-04-16T06:55:36.086Z,10.03
2019-04-16T06:56:33.262Z,10.03
2019-04-16T06:57:33.441Z,10.20
2019-04-16T06:58:49.870Z,10.14
2019-04-16T06:59:34.259Z,10.26
2019-04-16T07:00:34.995Z,10.31
2019-04-16T07:01:36.752Z,10.39
2019-04-16T07:02:37.286Z,10.46
2019-04-16T07:03:33.250Z,10.49
2019-04-16T07:04:33.173Z,10.61
2019-04-16T07:05:33.344Z,10.68
2019-04-16T07:06:36.036Z,10.62
2019-04-16T07:07:39.850Z,10.67
2019-04-16T07:08:38.114Z,10.75
2019-04-16T07:09:41.303Z,10.79
2019-04-16T07:10:44.064Z,10.87
2019-04-16T07:11:34.093Z,10.93
2019-04-16T07:12:37.982Z,10.82
2019-04-16T07:13:34.077Z,11.01
2019-04-16T07:14:35.965Z,10.98
2019-04-16T07:15:33.051Z,10.94
2019-04-16T07:16:33.039Z,11.05
2019-04-16T07:17:34.425Z,11.20
2019-04-16T07:18:35.597Z,11.19
2019-04-16T07:19:34.052Z,11.20
2019-04-16T07:20:33.001Z,11.20
2019-04-16T07:21:32.985Z,11.33
2019-04-16T07:22:32.973Z,11.41
2019-04-16T07:23:33.062Z,11.40
2019-04-16T07:24:36.596Z,11.45
2019-04-16T07:25:39.758Z,11.41
2019-04-16T07:26:34.075Z,11.51
2019-04-16T07:27:37.847Z,11.55
2019-04-16T07:28:33.937Z,11.55
2019-04-16T07:29:33.442Z,11.73
2019-04-16T07:30:38.689Z,11.69
2019-04-16T07:31:34.696Z,11.79
2019-04-16T07:32:32.901Z,11.85
2019-04-16T07:33:32.852Z,11.77
2019-04-16T07:34:32.843Z,11.93
2019-04-16T07:35:32.833Z,12.08
2019-04-16T07:36:32.826Z,12.03
2019-04-16T07:37:33.755Z,12.05
2019-04-16T07:38:35.201Z,12.17
2019-04-16T07:39:36.869Z,12.13
2019-04-16T07:40:33.804Z,12.17
2019-04-16T07:41:32.765Z,12.15
2019-04-16T07:42:32.753Z,12.14
2019-04-16T07:43:32.775Z,12.00
2019-04-16T07:44:32.776Z,12.08
2019-04-16T07:45:32.811Z,12.07
2019-04-16T07:46:32.709Z,11.91
2019-04-16T07:47:32.702Z,11.91
2019-04-16T07:48:33.058Z,12.03
2019-04-16T07:49:32.722Z,11.95
2019-04-16T07:50:33.314Z,11.96
2019-04-16T07:51:35.843Z,12.00
2019-04-16T07:52:32.644Z,12.14
2019-04-16T07:53:32.667Z,12.14
2019-04-16T07:54:32.616Z,12.26
2019-04-16T07:55:32.655Z,12.38
2019-04-16T07:56:32.603Z,12.50
2019-04-16T07:57:32.588Z,12.51
2019-04-16T07:58:32.582Z,12.51
2019-04-16T07:59:33.009Z,12.53
2019-04-16T08:00:32.549Z,12.59
2019-04-16T08:01:32.589Z,12.54
2019-04-16T08:02:32.526Z,12.54
2019-04-16T08:03:32.514Z,12.58
2019-04-16T08:04:35.534Z,12.55
2019-04-16T08:05:32.492Z,12.59
2019-04-16T08:06:32.480Z,12.55
2019-04-16T08:07:32.507Z,12.63
2019-04-16T08:08:32.460Z,12.69
2019-04-16T08:09:33.780Z,12.63
2019-04-16T08:10:32.504Z,12.68
2019-04-16T08:11:32.423Z,12.68
2019-04-16T08:12:32.421Z,12.73
2019-04-16T08:13:33.602Z,12.76
2019-04-16T08:14:32.388Z,12.71
2019-04-16T08:15:32.392Z,12.68
2019-04-16T08:16:46.311Z,12.73
2019-04-16T08:17:33.360Z,12.81
2019-04-16T08:18:32.354Z,12.87
2019-04-16T08:19:37.157Z,12.98
2019-04-16T08:20:33.398Z,13.02
2019-04-16T08:21:32.319Z,12.99
2019-04-16T08:22:32.298Z,12.99
2019-04-16T08:23:32.286Z,13.11
2019-04-16T08:24:32.287Z,13.01
2019-04-16T08:25:34.025Z,13.02
2019-04-16T08:26:32.253Z,13.19
2019-04-16T08:27:32.244Z,13.14
2019-04-16T08:28:32.229Z,13.11
2019-04-16T08:29:32.220Z,13.20
2019-04-16T08:30:39.029Z,13.35
2019-04-16T08:31:33.386Z,13.36
2019-04-16T08:32:32.185Z,13.57
2019-04-16T08:33:32.175Z,13.58
2019-04-16T08:34:32.191Z,13.63
2019-04-16T08:35:32.161Z,13.75
2019-04-16T08:36:32.147Z,13.79
2019-04-16T08:37:32.238Z,13.82
2019-04-16T08:38:34.894Z,13.80
2019-04-16T08:39:32.108Z,13.80
2019-04-16T08:40:32.101Z,13.88
2019-04-16T08:41:32.106Z,13.83
2019-04-16T08:42:43.915Z,13.83
2019-04-16T08:43:33.091Z,13.85
2019-04-16T08:44:35.325Z,13.94
2019-04-16T08:45:32.038Z,14.00
2019-04-16T08:46:32.041Z,14.08
2019-04-16T08:47:32.026Z,14.12
2019-04-16T08:48:32.011Z,14.08
2019-04-16T08:49:32.035Z,14.22
2019-04-16T08:50:31.982Z,14.30
2019-04-16T08:51:36.970Z,14.46
2019-04-16T08:52:32.973Z,14.40
2019-04-16T08:53:31.948Z,14.45
2019-04-16T08:54:31.939Z,14.45
2019-04-16T08:55:31.986Z,14.48
2019-04-16T08:56:31.914Z,14.55
2019-04-16T08:57:32.804Z,14.63
2019-04-16T08:58:31.893Z,14.67
2019-04-16T08:59:31.894Z,14.70
2019-04-16T09:00:31.881Z,14.67
2019-04-16T09:01:31.891Z,14.77
2019-04-16T09:02:31.851Z,14.71
2019-04-16T09:03:31.846Z,14.77
2019-04-16T09:04:34.623Z,14.85
2019-04-16T09:05:31.817Z,15.01
2019-04-16T09:06:31.826Z,15.07
2019-04-16T09:07:31.848Z,15.12
2019-04-16T09:08:31.783Z,15.19
2019-04-16T09:09:31.773Z,15.19
2019-04-16T09:10:31.771Z,15.25
2019-04-16T09:11:35.077Z,15.35
2019-04-16T09:12:31.866Z,15.44
2019-04-16T09:13:31.762Z,15.47
2019-04-16T09:14:31.721Z,15.54
2019-04-16T09:15:31.704Z,15.54
2019-04-16T09:16:31.694Z,15.62
2019-04-16T09:17:31.682Z,15.62
2019-04-16T09:18:31.671Z,15.70
2019-04-16T09:19:31.722Z,15.65
2019-04-16T09:20:31.649Z,15.76
2019-04-16T09:21:31.641Z,15.65
2019-04-16T09:22:31.627Z,15.73
2019-04-16T09:23:31.618Z,15.76
2019-04-16T09:24:31.606Z,15.78
2019-04-16T09:25:31.641Z,15.69
2019-04-16T09:26:31.582Z,15.68
2019-04-16T09:27:34.192Z,15.69
2019-04-16T09:28:32.117Z,15.72
2019-04-16T09:29:31.551Z,15.63
2019-04-16T09:30:31.543Z,15.68
2019-04-16T09:31:31.583Z,15.59
2019-04-16T09:32:31.517Z,15.70
2019-04-16T09:33:33.565Z,15.81
2019-04-16T09:34:31.495Z,15.77
2019-04-16T09:35:31.485Z,15.88
2019-04-16T09:36:31.474Z,15.96
2019-04-16T09:37:31.518Z,16.10
2019-04-16T09:38:31.450Z,16.14
2019-04-16T09:39:31.449Z,15.84
2019-04-16T09:40:31.431Z,15.69
2019-04-16T09:41:31.418Z,15.66
2019-04-16T09:42:31.411Z,15.59
2019-04-16T09:43:31.450Z,15.50
2019-04-16T09:44:35.027Z,15.52
2019-04-16T09:45:33.874Z,15.58
2019-04-16T09:46:50.330Z,15.66
2019-04-16T09:47:33.359Z,15.59
2019-04-16T09:48:34.383Z,15.52
2019-04-16T09:49:34.348Z,15.58
2019-04-16T09:50:32.380Z,15.65
2019-04-16T09:51:31.315Z,15.65
2019-04-16T09:52:31.298Z,15.48
2019-04-16T09:53:34.143Z,15.48
2019-04-16T09:54:31.272Z,15.52
2019-04-16T09:55:31.357Z,15.56
2019-04-16T09:56:31.250Z,15.65
2019-04-16T09:57:32.381Z,15.66
2019-04-16T09:58:31.279Z,15.80
2019-04-16T09:59:31.293Z,15.70
2019-04-16T10:00:31.222Z,15.90
2019-04-16T10:01:31.250Z,15.98
2019-04-16T10:02:31.190Z,16.24
2019-04-16T10:03:31.189Z,16.33
2019-04-16T10:04:31.160Z,16.36
2019-04-16T10:05:31.150Z,16.54
2019-04-16T10:06:31.138Z,16.69
2019-04-16T10:07:31.179Z,16.74
2019-04-16T10:08:31.126Z,16.90
2019-04-16T10:09:31.162Z,16.94
2019-04-16T10:10:31.106Z,16.95
2019-04-16T10:11:32.761Z,16.91
2019-04-16T10:12:31.069Z,17.09
2019-04-16T10:13:35.770Z,16.99
2019-04-16T10:14:32.047Z,17.04
2019-04-16T10:15:31.065Z,17.06
2019-04-16T10:16:31.028Z,17.06
2019-04-16T10:17:31.016Z,17.10
2019-04-16T10:18:34.818Z,17.02
2019-04-16T10:19:31.068Z,17.09
2019-04-16T10:20:30.984Z,17.06
2019-04-16T10:21:31.006Z,17.06
2019-04-16T10:22:30.988Z,17.19
2019-04-16T10:23:30.949Z,17.39
2019-04-16T10:24:30.958Z,17.28
2019-04-16T10:25:33.643Z,17.34
2019-04-16T10:26:30.969Z,17.53
2019-04-16T10:27:32.464Z,17.46
2019-04-16T10:28:30.921Z,17.53
2019-04-16T10:29:30.885Z,17.57
2019-04-16T10:30:30.879Z,17.52
2019-04-16T10:31:30.893Z,17.54
2019-04-16T10:32:30.864Z,17.50
2019-04-16T10:33:30.855Z,17.59
2019-04-16T10:34:30.845Z,17.52
2019-04-16T10:35:30.824Z,17.59
2019-04-16T10:36:30.878Z,17.59
2019-04-16T10:37:30.841Z,17.59
2019-04-16T10:38:30.795Z,17.78
2019-04-16T10:39:30.782Z,17.84
2019-04-16T10:40:30.766Z,17.87
2019-04-16T10:41:30.785Z,17.93
2019-04-16T10:42:30.756Z,18.03
2019-04-16T10:43:43.870Z,18.09
2019-04-16T10:44:31.711Z,18.05
2019-04-16T10:45:30.736Z,18.02
2019-04-16T10:46:30.706Z,18.05
2019-04-16T10:47:30.716Z,18.09
2019-04-16T10:48:30.690Z,18.18
2019-04-16T10:49:30.705Z,18.09
2019-04-16T10:50:30.644Z,18.17
2019-04-16T10:51:30.651Z,18.05
2019-04-16T10:52:30.643Z,18.17
2019-04-16T10:53:30.638Z,18.05
2019-04-16T10:54:30.621Z,18.17
2019-04-16T10:55:30.648Z,18.17
2019-04-16T10:56:30.577Z,18.28
2019-04-16T10:57:30.602Z,18.28
2019-04-16T10:58:30.554Z,18.38
2019-04-16T10:59:30.582Z,18.41
2019-04-16T11:00:30.547Z,18.33
2019-04-16T11:01:34.772Z,18.18
2019-04-16T11:02:30.510Z,18.13
2019-04-16T11:03:34.456Z,18.26
2019-04-16T11:04:30.520Z,18.41
2019-04-16T11:05:30.519Z,18.43
2019-04-16T11:06:30.466Z,18.52
2019-04-16T11:07:30.486Z,18.63
2019-04-16T11:08:30.475Z,18.42
2019-04-16T11:09:30.463Z,18.42
2019-04-16T11:10:30.427Z,18.57
2019-04-16T11:11:30.463Z,18.57
2019-04-16T11:12:30.430Z,18.71
2019-04-16T11:13:30.423Z,18.81
2019-04-16T11:14:30.379Z,18.89
2019-04-16T11:15:30.369Z,19.07
2019-04-16T11:16:30.356Z,19.16
2019-04-16T11:17:30.386Z,19.08
2019-04-16T11:18:30.349Z,19.20
2019-04-16T11:19:30.379Z,19.20
2019-04-16T11:20:30.313Z,19.22
2019-04-16T11:21:30.339Z,19.23
2019-04-16T11:22:30.291Z,19.37
2019-04-16T11:23:30.291Z,19.45
2019-04-16T11:24:30.333Z,19.45
2019-04-16T11:25:30.284Z,19.39
2019-04-16T11:26:30.245Z,19.47
2019-04-16T11:27:30.234Z,19.54
2019-04-16T11:28:30.224Z,19.59
2019-04-16T11:29:30.249Z,19.77
2019-04-16T11:30:30.229Z,20.00
2019-04-16T11:31:30.264Z,20.05
2019-04-16T11:32:30.215Z,20.04
2019-04-16T11:33:30.194Z,20.05
2019-04-16T11:34:30.157Z,20.12
2019-04-16T11:35:30.146Z,20.04
2019-04-16T11:36:30.923Z,20.07
2019-04-16T11:37:34.471Z,20.08
2019-04-16T11:38:31.147Z,20.15
2019-04-16T11:39:30.097Z,20.26
2019-04-16T11:40:30.085Z,20.29
2019-04-16T11:41:30.076Z,20.39
2019-04-16T11:42:30.103Z,20.42
2019-04-16T11:43:30.086Z,20.52
2019-04-16T11:44:30.063Z,20.61
2019-04-16T11:45:30.033Z,20.55
2019-04-16T11:46:30.030Z,20.60
2019-04-16T11:47:33.830Z,20.64
2019-04-16T11:48:30.015Z,20.58
2019-04-16T11:49:30.066Z,20.79
2019-04-16T11:50:30.005Z,20.74
2019-04-16T11:51:29.967Z,20.88
2019-04-16T11:52:29.992Z,20.75
2019-04-16T11:53:29.968Z,20.79
2019-04-16T11:54:29.949Z,20.82
2019-04-16T11:55:29.993Z,20.93
2019-04-16T11:56:29.916Z,20.86
2019-04-16T11:57:33.341Z,20.97
2019-04-16T11:58:29.984Z,20.83
2019-04-16T11:59:29.915Z,20.86
2019-04-16T12:00:29.890Z,20.98
2019-04-16T12:01:30.012Z,21.05
2019-04-16T12:02:29.868Z,21.13
2019-04-16T12:03:34.969Z,21.35
2019-04-16T12:04:30.829Z,21.59
2019-04-16T12:05:29.815Z,21.77
2019-04-16T12:06:29.809Z,21.84
2019-04-16T12:07:29.841Z,21.88
2019-04-16T12:08:29.832Z,21.60
2019-04-16T12:09:29.771Z,21.66
2019-04-16T12:10:29.761Z,21.82
2019-04-16T12:11:29.793Z,22.06
2019-04-16T12:12:29.750Z,22.15
2019-04-16T12:13:29.795Z,22.03
2019-04-16T12:14:34.364Z,22.09
2019-04-16T12:15:30.747Z,22.38
2019-04-16T12:16:29.696Z,22.66
2019-04-16T12:17:29.686Z,22.93
2019-04-16T12:18:31.901Z,22.78
2019-04-16T12:19:29.692Z,22.88
2019-04-16T12:20:29.685Z,23.11
2019-04-16T12:21:29.673Z,23.33
2019-04-16T12:22:29.633Z,23.41
2019-04-16T12:23:29.693Z,23.15
2019-04-16T12:24:29.648Z,22.66
2019-04-16T12:25:30.021Z,22.31
2019-04-16T12:26:29.630Z,22.19
2019-04-16T12:27:29.590Z,22.38
2019-04-16T12:28:29.568Z,22.59
2019-04-16T12:29:29.568Z,23.15
2019-04-16T12:30:29.588Z,22.86
2019-04-16T12:31:29.607Z,23.03
2019-04-16T12:32:29.556Z,23.10
2019-04-16T12:33:29.523Z,22.91
2019-04-16T12:34:29.516Z,23.01
2019-04-16T12:35:31.037Z,23.11
2019-04-16T12:36:29.499Z,23.11
2019-04-16T12:37:29.502Z,22.95
2019-04-16T12:38:29.557Z,22.41
2019-04-16T12:39:29.477Z,22.21
2019-04-16T12:40:29.465Z,21.93
2019-04-16T12:41:29.476Z,21.56
2019-04-16T12:42:29.430Z,21.41
2019-04-16T12:43:29.457Z,21.26
2019-04-16T12:44:44.100Z,21.16
2019-04-16T12:45:30.394Z,21.18
2019-04-16T12:46:29.420Z,21.11
2019-04-16T12:47:29.432Z,21.01
2019-04-16T12:48:29.461Z,21.08
2019-04-16T12:49:29.416Z,21.08
2019-04-16T12:50:29.331Z,21.03
2019-04-16T12:51:29.333Z,20.88
2019-04-16T12:52:29.311Z,20.71
2019-04-16T12:53:29.300Z,20.67
2019-04-16T12:54:29.297Z,20.55
2019-04-16T12:55:31.702Z,20.61
2019-04-16T12:56:29.266Z,20.75
2019-04-16T12:57:29.349Z,21.05
2019-04-16T12:58:29.246Z,21.34
2019-04-16T12:59:29.234Z,21.38
2019-04-16T13:00:31.552Z,21.62
2019-04-16T13:01:29.262Z,21.71
2019-04-16T13:02:29.200Z,21.94
2019-04-16T13:03:29.227Z,21.59
2019-04-16T13:04:29.179Z,21.73
2019-04-16T13:05:29.209Z,22.11
2019-04-16T13:06:29.157Z,22.44